sensor_id;sensor_type;location;lat;lon;timestamp;temperature;humidity
8892;DHT22;4482;54.332;10.118;2022-11-15T00:01:16;6.60;99.90
8892;DHT22;4482;54.332;10.118;2022-11-15T00:03:43;6.60;99.90
8892;DHT22;4482;54.332;10.118;2022-11-15T00:06:12;6.60;99.90
8892;DHT22;4482;54.332;10.118;2022-11-15T00:08:39;6.60;99.90
8892;DHT22;4482;54.332;10.118;2022-11-15T00:11:06;6.60;99.90
8892;DHT22;4482;54.332;10.118;2022-11-15T00:13:33;6.60;99.90
8892;DHT22;4482;54.332;10.118;2022-11-15T00:16:00;6.60;99.90
8892;DHT22;4482;54.332;10.118;2022-11-15T00:18:28;6.60;99.90
8892;DHT22;4482;54.332;10.118;2022-11-15T00:20:56;6.50;99.90
8892;DHT22;4482;54.332;10.118;2022-11-15T00:23:24;6.50;99.90
8892;DHT22;4482;54.332;10.118;2022-11-15T00:25:56;6.50;99.90
8892;DHT22;4482;54.332;10.118;2022-11-15T00:28:23;6.60;99.90
8892;DHT22;4482;54.332;10.118;2022-11-15T00:30:50;6.50;99.90
8892;DHT22;4482;54.332;10.118;2022-11-15T00:33:17;6.50;99.90
8892;DHT22;4482;54.332;10.118;2022-11-15T00:35:44;6.50;99.90
8892;DHT22;4482;54.332;10.118;2022-11-15T00:38:10;6.50;99.90
8892;DHT22;4482;54.332;10.118;2022-11-15T00:40:39;6.50;99.90
8892;DHT22;4482;54.332;10.118;2022-11-15T00:43:05;6.50;99.90
8892;DHT22;4482;54.332;10.118;2022-11-15T00:45:32;6.50;99.90
8892;DHT22;4482;54.332;10.118;2022-11-15T00:47:59;6.50;99.90
8892;DHT22;4482;54.332;10.118;2022-11-15T00:50:26;6.50;99.90
8892;DHT22;4482;54.332;10.118;2022-11-15T00:52:53;6.50;99.90
8892;DHT22;4482;54.332;10.118;2022-11-15T00:55:20;6.50;99.90
8892;DHT22;4482;54.332;10.118;2022-11-15T00:57:48;6.50;99.90
8892;DHT22;4482;54.332;10.118;2022-11-15T01:00:16;6.50;99.90
8892;DHT22;4482;54.332;10.118;2022-11-15T01:02:43;6.50;99.90
8892;DHT22;4482;54.332;10.118;2022-11-15T01:05:09;6.50;99.90
8892;DHT22;4482;54.332;10.118;2022-11-15T01:07:36;6.50;99.90
8892;DHT22;4482;54.332;10.118;2022-11-15T01:10:03;6.50;99.90
8892;DHT22;4482;54.332;10.118;2022-11-15T01:12:31;6.50;99.90
8892;DHT22;4482;54.332;10.118;2022-11-15T01:14:59;6.50;99.90
8892;DHT22;4482;54.332;10.118;2022-11-15T01:17:26;6.50;99.90
8892;DHT22;4482;54.332;10.118;2022-11-15T01:19:53;6.50;99.90
8892;DHT22;4482;54.332;10.118;2022-11-15T01:22:20;6.60;99.90
8892;DHT22;4482;54.332;10.118;2022-11-15T01:24:46;6.60;99.90
8892;DHT22;4482;54.332;10.118;2022-11-15T01:27:13;6.60;99.90
8892;DHT22;4482;54.332;10.118;2022-11-15T01:29:40;6.60;99.90
8892;DHT22;4482;54.332;10.118;2022-11-15T01:32:08;6.60;99.90
8892;DHT22;4482;54.332;10.118;2022-11-15T01:34:35;6.60;99.90
8892;DHT22;4482;54.332;10.118;2022-11-15T01:37:02;6.60;99.90
8892;DHT22;4482;54.332;10.118;2022-11-15T01:39:29;6.70;99.90
8892;DHT22;4482;54.332;10.118;2022-11-15T01:41:56;6.70;99.90
8892;DHT22;4482;54.332;10.118;2022-11-15T01:44:39;6.70;99.90
8892;DHT22;4482;54.332;10.118;2022-11-15T01:47:10;6.70;99.90
8892;DHT22;4482;54.332;10.118;2022-11-15T01:49:41;6.70;99.90
8892;DHT22;4482;54.332;10.118;2022-11-15T01:52:13;6.70;99.90
8892;DHT22;4482;54.332;10.118;2022-11-15T01:54:40;6.70;99.90
8892;DHT22;4482;54.332;10.118;2022-11-15T01:57:09;6.60;99.90
8892;DHT22;4482;54.332;10.118;2022-11-15T01:59:37;6.70;99.90
8892;DHT22;4482;54.332;10.118;2022-11-15T02:02:05;6.70;99.90
8892;DHT22;4482;54.332;10.118;2022-11-15T02:04:37;6.70;99.90
8892;DHT22;4482;54.332;10.118;2022-11-15T02:07:07;6.70;99.90
8892;DHT22;4482;54.332;10.118;2022-11-15T02:09:36;6.70;99.90
8892;DHT22;4482;54.332;10.118;2022-11-15T02:12:03;6.70;99.90
8892;DHT22;4482;54.332;10.118;2022-11-15T02:14:31;6.70;99.90
8892;DHT22;4482;54.332;10.118;2022-11-15T02:17:01;6.70;99.90
8892;DHT22;4482;54.332;10.118;2022-11-15T02:19:58;6.70;99.90
8892;DHT22;4482;54.332;10.118;2022-11-15T02:22:37;6.70;99.90
8892;DHT22;4482;54.332;10.118;2022-11-15T02:25:25;6.70;99.90
8892;DHT22;4482;54.332;10.118;2022-11-15T02:28:22;6.70;99.90
8892;DHT22;4482;54.332;10.118;2022-11-15T02:30:57;6.70;99.90
8892;DHT22;4482;54.332;10.118;2022-11-15T02:33:33;6.70;99.90
8892;DHT22;4482;54.332;10.118;2022-11-15T02:36:05;6.60;99.90
8892;DHT22;4482;54.332;10.118;2022-11-15T02:38:38;6.70;99.90
8892;DHT22;4482;54.332;10.118;2022-11-15T02:41:10;6.70;99.90
8892;DHT22;4482;54.332;10.118;2022-11-15T02:43:41;6.60;99.90
8892;DHT22;4482;54.332;10.118;2022-11-15T02:46:28;6.60;99.90
8892;DHT22;4482;54.332;10.118;2022-11-15T02:49:11;6.60;99.90
8892;DHT22;4482;54.332;10.118;2022-11-15T02:51:40;6.60;99.90
8892;DHT22;4482;54.332;10.118;2022-11-15T02:54:10;6.60;99.90
8892;DHT22;4482;54.332;10.118;2022-11-15T02:56:37;6.60;99.90
8892;DHT22;4482;54.332;10.118;2022-11-15T03:02:17;6.50;99.90
8892;DHT22;4482;54.332;10.118;2022-11-15T03:04:51;6.50;99.90
8892;DHT22;4482;54.332;10.118;2022-11-15T03:07:25;6.50;99.90
8892;DHT22;4482;54.332;10.118;2022-11-15T03:09:57;6.50;99.90
8892;DHT22;4482;54.332;10.118;2022-11-15T03:12:33;6.50;99.90
8892;DHT22;4482;54.332;10.118;2022-11-15T03:15:05;6.50;99.90
8892;DHT22;4482;54.332;10.118;2022-11-15T03:17:37;6.50;99.90
8892;DHT22;4482;54.332;10.118;2022-11-15T03:20:06;6.40;99.90
8892;DHT22;4482;54.332;10.118;2022-11-15T03:22:36;6.40;99.90
8892;DHT22;4482;54.332;10.118;2022-11-15T03:25:06;6.40;99.90
8892;DHT22;4482;54.332;10.118;2022-11-15T03:27:38;6.30;99.90
8892;DHT22;4482;54.332;10.118;2022-11-15T03:30:08;6.40;99.90
8892;DHT22;4482;54.332;10.118;2022-11-15T03:32:40;6.30;99.90
8892;DHT22;4482;54.332;10.118;2022-11-15T03:35:11;6.30;99.90
8892;DHT22;4482;54.332;10.118;2022-11-15T03:37:45;6.30;99.90
8892;DHT22;4482;54.332;10.118;2022-11-15T03:40:13;6.30;99.90
8892;DHT22;4482;54.332;10.118;2022-11-15T03:42:44;6.30;99.90
8892;DHT22;4482;54.332;10.118;2022-11-15T03:45:15;6.30;99.90
8892;DHT22;4482;54.332;10.118;2022-11-15T03:47:48;6.20;99.90
8892;DHT22;4482;54.332;10.118;2022-11-15T03:50:18;6.20;99.90
8892;DHT22;4482;54.332;10.118;2022-11-15T03:52:46;6.20;99.90
8892;DHT22;4482;54.332;10.118;2022-11-15T03:55:16;6.20;99.90
8892;DHT22;4482;54.332;10.118;2022-11-15T03:57:44;6.20;99.90
8892;DHT22;4482;54.332;10.118;2022-11-15T04:00:11;6.20;99.90
8892;DHT22;4482;54.332;10.118;2022-11-15T04:02:38;6.20;99.90
8892;DHT22;4482;54.332;10.118;2022-11-15T04:05:07;6.20;99.90
8892;DHT22;4482;54.332;10.118;2022-11-15T04:07:34;6.20;99.90
8892;DHT22;4482;54.332;10.118;2022-11-15T04:10:01;6.10;99.90
8892;DHT22;4482;54.332;10.118;2022-11-15T04:12:31;6.10;99.90
8892;DHT22;4482;54.332;10.118;2022-11-15T04:14:59;6.10;99.90
8892;DHT22;4482;54.332;10.118;2022-11-15T04:17:37;6.10;99.90
8892;DHT22;4482;54.332;10.118;2022-11-15T04:20:08;6.10;99.90
8892;DHT22;4482;54.332;10.118;2022-11-15T04:22:53;6.10;99.90
8892;DHT22;4482;54.332;10.118;2022-11-15T04:25:38;6.20;99.90
8892;DHT22;4482;54.332;10.118;2022-11-15T04:28:05;6.20;99.90
8892;DHT22;4482;54.332;10.118;2022-11-15T04:30:32;6.20;99.90
8892;DHT22;4482;54.332;10.118;2022-11-15T04:32:58;6.10;99.90
8892;DHT22;4482;54.332;10.118;2022-11-15T04:35:27;6.10;99.90
8892;DHT22;4482;54.332;10.118;2022-11-15T04:37:54;6.00;99.90
8892;DHT22;4482;54.332;10.118;2022-11-15T04:40:20;6.00;99.90
8892;DHT22;4482;54.332;10.118;2022-11-15T04:42:47;6.00;99.90
8892;DHT22;4482;54.332;10.118;2022-11-15T04:45:14;6.00;99.90
8892;DHT22;4482;54.332;10.118;2022-11-15T04:47:43;6.00;99.90
8892;DHT22;4482;54.332;10.118;2022-11-15T04:50:10;6.00;99.90
8892;DHT22;4482;54.332;10.118;2022-11-15T04:52:40;6.00;99.90
8892;DHT22;4482;54.332;10.118;2022-11-15T04:55:07;6.00;99.90
8892;DHT22;4482;54.332;10.118;2022-11-15T04:57:34;6.00;99.90
8892;DHT22;4482;54.332;10.118;2022-11-15T05:00:03;6.00;99.90
8892;DHT22;4482;54.332;10.118;2022-11-15T05:02:30;5.90;99.90
8892;DHT22;4482;54.332;10.118;2022-11-15T05:05:11;5.90;99.90
8892;DHT22;4482;54.332;10.118;2022-11-15T05:07:39;5.90;99.90
8892;DHT22;4482;54.332;10.118;2022-11-15T05:10:06;5.90;99.90
8892;DHT22;4482;54.332;10.118;2022-11-15T05:12:33;5.90;99.90
8892;DHT22;4482;54.332;10.118;2022-11-15T05:15:00;5.80;99.90
8892;DHT22;4482;54.332;10.118;2022-11-15T05:17:27;5.80;99.90
8892;DHT22;4482;54.332;10.118;2022-11-15T05:19:54;5.90;99.90
8892;DHT22;4482;54.332;10.118;2022-11-15T05:22:21;5.80;99.90
8892;DHT22;4482;54.332;10.118;2022-11-15T05:24:49;5.90;99.90
8892;DHT22;4482;54.332;10.118;2022-11-15T05:27:16;6.00;99.90
8892;DHT22;4482;54.332;10.118;2022-11-15T05:29:43;6.00;99.90
8892;DHT22;4482;54.332;10.118;2022-11-15T05:32:12;5.90;99.90
8892;DHT22;4482;54.332;10.118;2022-11-15T05:34:39;5.90;99.90
8892;DHT22;4482;54.332;10.118;2022-11-15T05:37:06;5.90;99.90
8892;DHT22;4482;54.332;10.118;2022-11-15T05:39:33;5.80;99.90
8892;DHT22;4482;54.332;10.118;2022-11-15T05:42:04;5.90;99.90
8892;DHT22;4482;54.332;10.118;2022-11-15T05:44:33;5.90;99.90
8892;DHT22;4482;54.332;10.118;2022-11-15T05:47:00;5.90;99.90
8892;DHT22;4482;54.332;10.118;2022-11-15T05:49:31;5.90;99.90
8892;DHT22;4482;54.332;10.118;2022-11-15T05:52:00;6.00;99.90
8892;DHT22;4482;54.332;10.118;2022-11-15T05:54:29;6.10;99.90
8892;DHT22;4482;54.332;10.118;2022-11-15T05:56:57;6.20;99.90
8892;DHT22;4482;54.332;10.118;2022-11-15T05:59:28;6.30;99.90
8892;DHT22;4482;54.332;10.118;2022-11-15T06:01:56;6.30;99.90
8892;DHT22;4482;54.332;10.118;2022-11-15T06:04:23;6.30;99.90
8892;DHT22;4482;54.332;10.118;2022-11-15T06:06:50;6.40;99.90
8892;DHT22;4482;54.332;10.118;2022-11-15T06:09:17;6.40;99.90
8892;DHT22;4482;54.332;10.118;2022-11-15T06:11:43;6.50;99.90
8892;DHT22;4482;54.332;10.118;2022-11-15T06:14:10;6.50;99.90
8892;DHT22;4482;54.332;10.118;2022-11-15T06:16:38;6.60;99.90
8892;DHT22;4482;54.332;10.118;2022-11-15T06:19:06;6.50;99.90
8892;DHT22;4482;54.332;10.118;2022-11-15T06:21:33;6.50;99.90
8892;DHT22;4482;54.332;10.118;2022-11-15T06:24:00;6.50;99.90
8892;DHT22;4482;54.332;10.118;2022-11-15T06:26:27;6.50;99.90
8892;DHT22;4482;54.332;10.118;2022-11-15T06:28:54;6.60;99.90
8892;DHT22;4482;54.332;10.118;2022-11-15T06:31:21;6.60;99.90
8892;DHT22;4482;54.332;10.118;2022-11-15T06:33:49;6.60;99.90
8892;DHT22;4482;54.332;10.118;2022-11-15T06:36:16;6.60;99.90
8892;DHT22;4482;54.332;10.118;2022-11-15T06:38:43;6.70;99.90
8892;DHT22;4482;54.332;10.118;2022-11-15T06:41:12;6.70;99.90
8892;DHT22;4482;54.332;10.118;2022-11-15T06:43:39;6.70;99.90
8892;DHT22;4482;54.332;10.118;2022-11-15T06:46:07;6.80;99.90
8892;DHT22;4482;54.332;10.118;2022-11-15T06:48:34;6.80;99.90
8892;DHT22;4482;54.332;10.118;2022-11-15T06:51:04;6.80;99.90
8892;DHT22;4482;54.332;10.118;2022-11-15T06:53:31;6.80;99.90
8892;DHT22;4482;54.332;10.118;2022-11-15T06:55:59;6.80;99.90
8892;DHT22;4482;54.332;10.118;2022-11-15T06:58:27;6.80;99.90
8892;DHT22;4482;54.332;10.118;2022-11-15T07:00:57;6.80;99.90
8892;DHT22;4482;54.332;10.118;2022-11-15T07:03:24;6.70;99.90
8892;DHT22;4482;54.332;10.118;2022-11-15T07:05:52;6.70;99.90
8892;DHT22;4482;54.332;10.118;2022-11-15T07:08:21;6.70;99.90
8892;DHT22;4482;54.332;10.118;2022-11-15T07:10:48;6.60;99.90
8892;DHT22;4482;54.332;10.118;2022-11-15T07:13:15;6.60;99.90
8892;DHT22;4482;54.332;10.118;2022-11-15T07:15:42;6.60;99.90
8892;DHT22;4482;54.332;10.118;2022-11-15T07:18:09;6.60;99.90
8892;DHT22;4482;54.332;10.118;2022-11-15T07:20:36;6.70;99.90
8892;DHT22;4482;54.332;10.118;2022-11-15T07:23:04;6.60;99.90
8892;DHT22;4482;54.332;10.118;2022-11-15T07:25:32;6.70;99.90
8892;DHT22;4482;54.332;10.118;2022-11-15T07:28:00;6.80;99.90
8892;DHT22;4482;54.332;10.118;2022-11-15T07:30:27;6.90;99.90
8892;DHT22;4482;54.332;10.118;2022-11-15T07:32:55;6.90;99.90
8892;DHT22;4482;54.332;10.118;2022-11-15T07:35:22;6.90;99.90
8892;DHT22;4482;54.332;10.118;2022-11-15T07:37:56;6.90;99.90
8892;DHT22;4482;54.332;10.118;2022-11-15T07:40:23;6.80;99.90
8892;DHT22;4482;54.332;10.118;2022-11-15T07:42:52;7.00;99.90
8892;DHT22;4482;54.332;10.118;2022-11-15T07:45:23;6.90;99.90
8892;DHT22;4482;54.332;10.118;2022-11-15T07:47:52;6.90;99.90
8892;DHT22;4482;54.332;10.118;2022-11-15T07:50:19;7.00;99.90
8892;DHT22;4482;54.332;10.118;2022-11-15T07:52:46;7.00;99.90
8892;DHT22;4482;54.332;10.118;2022-11-15T07:55:13;7.00;99.90
8892;DHT22;4482;54.332;10.118;2022-11-15T07:57:40;7.10;99.90
8892;DHT22;4482;54.332;10.118;2022-11-15T08:00:10;7.10;99.90
8892;DHT22;4482;54.332;10.118;2022-11-15T08:02:37;7.10;99.90
8892;DHT22;4482;54.332;10.118;2022-11-15T08:05:04;7.10;99.90
8892;DHT22;4482;54.332;10.118;2022-11-15T08:07:31;7.10;99.90
8892;DHT22;4482;54.332;10.118;2022-11-15T08:09:59;7.10;99.90
8892;DHT22;4482;54.332;10.118;2022-11-15T08:12:27;7.20;99.90
8892;DHT22;4482;54.332;10.118;2022-11-15T08:14:54;7.10;99.90
8892;DHT22;4482;54.332;10.118;2022-11-15T08:17:22;7.20;99.90
8892;DHT22;4482;54.332;10.118;2022-11-15T08:19:49;7.20;99.90
8892;DHT22;4482;54.332;10.118;2022-11-15T08:22:16;7.20;99.90
8892;DHT22;4482;54.332;10.118;2022-11-15T08:24:44;7.20;99.90
8892;DHT22;4482;54.332;10.118;2022-11-15T08:27:10;7.30;99.90
8892;DHT22;4482;54.332;10.118;2022-11-15T08:29:42;7.30;99.90
8892;DHT22;4482;54.332;10.118;2022-11-15T08:32:09;7.30;99.90
8892;DHT22;4482;54.332;10.118;2022-11-15T08:34:38;7.40;99.90
8892;DHT22;4482;54.332;10.118;2022-11-15T08:37:05;7.40;99.90
8892;DHT22;4482;54.332;10.118;2022-11-15T08:39:32;7.50;99.90
8892;DHT22;4482;54.332;10.118;2022-11-15T08:41:59;7.50;99.90
8892;DHT22;4482;54.332;10.118;2022-11-15T08:44:25;7.60;99.90
8892;DHT22;4482;54.332;10.118;2022-11-15T08:46:52;7.60;99.90
8892;DHT22;4482;54.332;10.118;2022-11-15T08:49:19;7.60;99.90
8892;DHT22;4482;54.332;10.118;2022-11-15T08:51:47;7.70;99.90
8892;DHT22;4482;54.332;10.118;2022-11-15T08:54:14;7.80;99.90
8892;DHT22;4482;54.332;10.118;2022-11-15T08:56:41;7.80;99.90
8892;DHT22;4482;54.332;10.118;2022-11-15T08:59:08;7.80;99.90
8892;DHT22;4482;54.332;10.118;2022-11-15T09:01:35;7.80;99.90
8892;DHT22;4482;54.332;10.118;2022-11-15T09:04:02;7.80;99.90
8892;DHT22;4482;54.332;10.118;2022-11-15T09:06:30;7.90;99.90
8892;DHT22;4482;54.332;10.118;2022-11-15T09:09:00;7.90;99.90
8892;DHT22;4482;54.332;10.118;2022-11-15T09:11:27;7.90;99.90
8892;DHT22;4482;54.332;10.118;2022-11-15T09:13:54;7.90;99.90
8892;DHT22;4482;54.332;10.118;2022-11-15T09:16:21;7.90;99.90
8892;DHT22;4482;54.332;10.118;2022-11-15T09:18:47;8.00;99.90
8892;DHT22;4482;54.332;10.118;2022-11-15T09:21:14;8.00;99.90
8892;DHT22;4482;54.332;10.118;2022-11-15T09:23:41;8.00;99.90
8892;DHT22;4482;54.332;10.118;2022-11-15T09:26:09;8.10;99.90
8892;DHT22;4482;54.332;10.118;2022-11-15T09:28:37;8.10;99.90
8892;DHT22;4482;54.332;10.118;2022-11-15T09:31:07;8.20;99.90
8892;DHT22;4482;54.332;10.118;2022-11-15T09:33:34;8.20;99.90
8892;DHT22;4482;54.332;10.118;2022-11-15T09:36:03;8.30;99.90
8892;DHT22;4482;54.332;10.118;2022-11-15T09:38:31;8.30;99.90
8892;DHT22;4482;54.332;10.118;2022-11-15T09:41:23;8.30;99.90
8892;DHT22;4482;54.332;10.118;2022-11-15T09:43:58;8.40;99.90
8892;DHT22;4482;54.332;10.118;2022-11-15T09:46:38;8.40;99.90
8892;DHT22;4482;54.332;10.118;2022-11-15T09:49:10;8.40;99.90
8892;DHT22;4482;54.332;10.118;2022-11-15T09:51:42;8.50;99.90
8892;DHT22;4482;54.332;10.118;2022-11-15T09:54:21;8.50;99.90
8892;DHT22;4482;54.332;10.118;2022-11-15T09:56:51;8.40;99.90
8892;DHT22;4482;54.332;10.118;2022-11-15T09:59:29;8.50;99.90
8892;DHT22;4482;54.332;10.118;2022-11-15T10:02:12;8.50;99.90
8892;DHT22;4482;54.332;10.118;2022-11-15T10:04:42;8.50;99.90
8892;DHT22;4482;54.332;10.118;2022-11-15T10:07:22;8.50;99.90
8892;DHT22;4482;54.332;10.118;2022-11-15T10:09:54;8.50;99.90
8892;DHT22;4482;54.332;10.118;2022-11-15T10:12:25;8.60;99.90
8892;DHT22;4482;54.332;10.118;2022-11-15T10:15:00;8.60;99.90
8892;DHT22;4482;54.332;10.118;2022-11-15T10:17:50;8.70;99.90
8892;DHT22;4482;54.332;10.118;2022-11-15T10:20:23;8.70;99.90
8892;DHT22;4482;54.332;10.118;2022-11-15T10:22:52;8.70;99.90
8892;DHT22;4482;54.332;10.118;2022-11-15T10:25:22;8.80;99.90
8892;DHT22;4482;54.332;10.118;2022-11-15T10:28:00;8.80;99.90
8892;DHT22;4482;54.332;10.118;2022-11-15T10:30:33;8.90;99.90
8892;DHT22;4482;54.332;10.118;2022-11-15T10:33:22;8.90;99.90
8892;DHT22;4482;54.332;10.118;2022-11-15T10:35:49;8.90;99.90
8892;DHT22;4482;54.332;10.118;2022-11-15T10:38:52;8.90;99.90
8892;DHT22;4482;54.332;10.118;2022-11-15T10:41:20;8.90;99.90
8892;DHT22;4482;54.332;10.118;2022-11-15T10:47:23;8.90;99.90
8892;DHT22;4482;54.332;10.118;2022-11-15T10:49:56;9.00;99.90
8892;DHT22;4482;54.332;10.118;2022-11-15T10:52:24;9.00;99.90
8892;DHT22;4482;54.332;10.118;2022-11-15T10:54:55;9.00;99.90
8892;DHT22;4482;54.332;10.118;2022-11-15T10:57:24;9.00;99.90
8892;DHT22;4482;54.332;10.118;2022-11-15T10:59:54;9.00;99.90
8892;DHT22;4482;54.332;10.118;2022-11-15T11:02:28;8.90;99.90
8892;DHT22;4482;54.332;10.118;2022-11-15T11:04:56;8.90;99.90
8892;DHT22;4482;54.332;10.118;2022-11-15T11:07:24;8.90;99.90
8892;DHT22;4482;54.332;10.118;2022-11-15T11:10:03;8.90;99.90
8892;DHT22;4482;54.332;10.118;2022-11-15T11:12:32;9.00;99.90
8892;DHT22;4482;54.332;10.118;2022-11-15T11:15:02;8.90;99.90
8892;DHT22;4482;54.332;10.118;2022-11-15T11:17:46;9.00;99.90
8892;DHT22;4482;54.332;10.118;2022-11-15T11:20:21;9.00;99.90
8892;DHT22;4482;54.332;10.118;2022-11-15T11:23:02;9.00;99.90
8892;DHT22;4482;54.332;10.118;2022-11-15T11:25:35;9.00;99.90
8892;DHT22;4482;54.332;10.118;2022-11-15T11:28:23;9.00;99.90
8892;DHT22;4482;54.332;10.118;2022-11-15T11:31:00;9.10;99.90
8892;DHT22;4482;54.332;10.118;2022-11-15T11:33:37;9.10;99.90
8892;DHT22;4482;54.332;10.118;2022-11-15T11:36:16;9.10;99.90
8892;DHT22;4482;54.332;10.118;2022-11-15T11:38:53;9.00;99.90
8892;DHT22;4482;54.332;10.118;2022-11-15T11:41:37;9.00;99.90
8892;DHT22;4482;54.332;10.118;2022-11-15T11:44:16;8.90;99.90
8892;DHT22;4482;54.332;10.118;2022-11-15T11:46:49;8.90;99.90
8892;DHT22;4482;54.332;10.118;2022-11-15T11:49:23;9.00;99.90
8892;DHT22;4482;54.332;10.118;2022-11-15T11:51:55;9.00;99.90
8892;DHT22;4482;54.332;10.118;2022-11-15T11:54:30;9.10;99.90
8892;DHT22;4482;54.332;10.118;2022-11-15T11:57:02;9.10;99.90
8892;DHT22;4482;54.332;10.118;2022-11-15T11:59:37;9.10;99.90
8892;DHT22;4482;54.332;10.118;2022-11-15T12:02:13;9.10;99.90
8892;DHT22;4482;54.332;10.118;2022-11-15T12:04:45;9.20;99.90
8892;DHT22;4482;54.332;10.118;2022-11-15T12:07:17;9.20;99.90
8892;DHT22;4482;54.332;10.118;2022-11-15T12:09:51;9.30;99.90
8892;DHT22;4482;54.332;10.118;2022-11-15T12:12:25;9.30;99.90
8892;DHT22;4482;54.332;10.118;2022-11-15T12:14:56;9.40;99.90
8892;DHT22;4482;54.332;10.118;2022-11-15T12:17:25;9.30;99.90
8892;DHT22;4482;54.332;10.118;2022-11-15T12:19:56;9.40;99.90
8892;DHT22;4482;54.332;10.118;2022-11-15T12:22:33;9.50;99.90
8892;DHT22;4482;54.332;10.118;2022-11-15T12:25:03;9.50;99.90
8892;DHT22;4482;54.332;10.118;2022-11-15T12:27:36;9.50;99.90
8892;DHT22;4482;54.332;10.118;2022-11-15T12:30:14;9.50;99.90
8892;DHT22;4482;54.332;10.118;2022-11-15T12:33:03;9.50;99.90
8892;DHT22;4482;54.332;10.118;2022-11-15T12:35:35;9.50;99.90
8892;DHT22;4482;54.332;10.118;2022-11-15T12:38:03;9.60;99.90
8892;DHT22;4482;54.332;10.118;2022-11-15T12:40:35;9.60;99.90
8892;DHT22;4482;54.332;10.118;2022-11-15T12:43:37;9.60;99.90
8892;DHT22;4482;54.332;10.118;2022-11-15T12:46:08;9.60;99.90
8892;DHT22;4482;54.332;10.118;2022-11-15T12:48:49;9.60;99.90
8892;DHT22;4482;54.332;10.118;2022-11-15T12:51:20;9.50;99.90
8892;DHT22;4482;54.332;10.118;2022-11-15T12:53:47;9.50;99.90
8892;DHT22;4482;54.332;10.118;2022-11-15T12:56:21;9.50;99.90
8892;DHT22;4482;54.332;10.118;2022-11-15T12:58:55;9.50;99.90
8892;DHT22;4482;54.332;10.118;2022-11-15T13:04:35;9.50;99.90
8892;DHT22;4482;54.332;10.118;2022-11-15T13:07:03;9.60;99.90
8892;DHT22;4482;54.332;10.118;2022-11-15T13:09:53;9.50;99.90
8892;DHT22;4482;54.332;10.118;2022-11-15T13:12:48;9.60;99.90
8892;DHT22;4482;54.332;10.118;2022-11-15T13:18:28;9.50;99.90
8892;DHT22;4482;54.332;10.118;2022-11-15T13:20:56;9.60;99.90
8892;DHT22;4482;54.332;10.118;2022-11-15T13:23:23;9.60;99.90
8892;DHT22;4482;54.332;10.118;2022-11-15T13:26:11;9.60;99.90
8892;DHT22;4482;54.332;10.118;2022-11-15T13:28:42;9.60;99.90
8892;DHT22;4482;54.332;10.118;2022-11-15T13:31:23;9.60;99.90
8892;DHT22;4482;54.332;10.118;2022-11-15T13:33:52;9.60;99.90
8892;DHT22;4482;54.332;10.118;2022-11-15T13:36:21;9.60;99.90
8892;DHT22;4482;54.332;10.118;2022-11-15T13:38:57;9.70;99.90
8892;DHT22;4482;54.332;10.118;2022-11-15T13:41:28;9.80;99.90
8892;DHT22;4482;54.332;10.118;2022-11-15T13:43:57;9.70;99.90
8892;DHT22;4482;54.332;10.118;2022-11-15T13:46:25;9.80;99.90
8892;DHT22;4482;54.332;10.118;2022-11-15T13:48:56;9.80;99.90
8892;DHT22;4482;54.332;10.118;2022-11-15T13:51:36;9.80;99.90
8892;DHT22;4482;54.332;10.118;2022-11-15T13:54:13;9.80;99.90
8892;DHT22;4482;54.332;10.118;2022-11-15T13:56:46;9.80;99.90
8892;DHT22;4482;54.332;10.118;2022-11-15T13:59:20;9.90;99.90
8892;DHT22;4482;54.332;10.118;2022-11-15T14:01:49;9.90;99.90
8892;DHT22;4482;54.332;10.118;2022-11-15T14:04:20;9.90;99.90
8892;DHT22;4482;54.332;10.118;2022-11-15T14:06:50;9.90;99.90
8892;DHT22;4482;54.332;10.118;2022-11-15T14:09:37;10.00;99.90
8892;DHT22;4482;54.332;10.118;2022-11-15T14:12:25;10.00;99.90
8892;DHT22;4482;54.332;10.118;2022-11-15T14:14:53;10.00;99.90
8892;DHT22;4482;54.332;10.118;2022-11-15T14:17:32;10.00;99.90
8892;DHT22;4482;54.332;10.118;2022-11-15T14:20:01;10.10;99.90
8892;DHT22;4482;54.332;10.118;2022-11-15T14:22:29;10.10;99.90
8892;DHT22;4482;54.332;10.118;2022-11-15T14:25:14;10.10;99.90
8892;DHT22;4482;54.332;10.118;2022-11-15T14:27:43;10.20;99.90
8892;DHT22;4482;54.332;10.118;2022-11-15T14:30:14;10.10;99.90
8892;DHT22;4482;54.332;10.118;2022-11-15T14:32:44;10.10;99.90
8892;DHT22;4482;54.332;10.118;2022-11-15T14:35:15;10.20;99.90
8892;DHT22;4482;54.332;10.118;2022-11-15T14:37:43;10.10;99.90
8892;DHT22;4482;54.332;10.118;2022-11-15T14:40:13;10.10;99.90
8892;DHT22;4482;54.332;10.118;2022-11-15T14:42:40;10.10;99.90
8892;DHT22;4482;54.332;10.118;2022-11-15T14:45:11;10.10;99.90
8892;DHT22;4482;54.332;10.118;2022-11-15T14:47:39;10.10;99.90
8892;DHT22;4482;54.332;10.118;2022-11-15T14:50:06;10.20;99.90
8892;DHT22;4482;54.332;10.118;2022-11-15T14:52:34;10.20;99.90
8892;DHT22;4482;54.332;10.118;2022-11-15T14:55:08;10.20;99.90
8892;DHT22;4482;54.332;10.118;2022-11-15T14:57:36;10.20;99.90
8892;DHT22;4482;54.332;10.118;2022-11-15T15:00:05;10.20;99.90
8892;DHT22;4482;54.332;10.118;2022-11-15T15:02:32;10.20;99.90
8892;DHT22;4482;54.332;10.118;2022-11-15T15:04:59;10.20;99.90
8892;DHT22;4482;54.332;10.118;2022-11-15T15:07:28;10.20;99.90
8892;DHT22;4482;54.332;10.118;2022-11-15T15:09:56;10.10;99.90
8892;DHT22;4482;54.332;10.118;2022-11-15T15:12:23;10.10;99.90
8892;DHT22;4482;54.332;10.118;2022-11-15T15:14:50;10.10;99.90
8892;DHT22;4482;54.332;10.118;2022-11-15T15:17:18;10.00;99.90
8892;DHT22;4482;54.332;10.118;2022-11-15T15:19:44;10.00;99.90
8892;DHT22;4482;54.332;10.118;2022-11-15T15:22:15;10.00;99.90
8892;DHT22;4482;54.332;10.118;2022-11-15T15:24:42;9.90;99.90
8892;DHT22;4482;54.332;10.118;2022-11-15T15:27:11;9.90;99.90
8892;DHT22;4482;54.332;10.118;2022-11-15T15:29:38;9.90;99.90
8892;DHT22;4482;54.332;10.118;2022-11-15T15:32:05;9.90;99.90
8892;DHT22;4482;54.332;10.118;2022-11-15T15:34:32;9.80;99.90
8892;DHT22;4482;54.332;10.118;2022-11-15T15:37:21;9.80;99.90
8892;DHT22;4482;54.332;10.118;2022-11-15T15:39:49;9.80;99.90
8892;DHT22;4482;54.332;10.118;2022-11-15T15:42:18;9.80;99.90
8892;DHT22;4482;54.332;10.118;2022-11-15T15:44:44;9.70;99.90
8892;DHT22;4482;54.332;10.118;2022-11-15T15:47:12;9.70;99.90
8892;DHT22;4482;54.332;10.118;2022-11-15T15:49:40;9.70;99.90
8892;DHT22;4482;54.332;10.118;2022-11-15T15:52:07;9.70;99.90
8892;DHT22;4482;54.332;10.118;2022-11-15T15:54:34;9.70;99.90
8892;DHT22;4482;54.332;10.118;2022-11-15T15:57:01;9.70;99.90
8892;DHT22;4482;54.332;10.118;2022-11-15T15:59:30;9.70;99.90
8892;DHT22;4482;54.332;10.118;2022-11-15T16:01:57;9.60;99.90
8892;DHT22;4482;54.332;10.118;2022-11-15T16:04:25;9.60;99.90
8892;DHT22;4482;54.332;10.118;2022-11-15T16:06:58;9.50;99.90
8892;DHT22;4482;54.332;10.118;2022-11-15T16:09:25;9.60;99.90
8892;DHT22;4482;54.332;10.118;2022-11-15T16:12:05;9.60;99.90
8892;DHT22;4482;54.332;10.118;2022-11-15T16:14:34;9.60;99.90
8892;DHT22;4482;54.332;10.118;2022-11-15T16:17:01;9.60;99.90
8892;DHT22;4482;54.332;10.118;2022-11-15T16:19:29;9.60;99.90
8892;DHT22;4482;54.332;10.118;2022-11-15T16:21:56;9.70;99.90
8892;DHT22;4482;54.332;10.118;2022-11-15T16:24:23;9.70;99.90
8892;DHT22;4482;54.332;10.118;2022-11-15T16:26:51;9.70;99.90
8892;DHT22;4482;54.332;10.118;2022-11-15T16:29:18;9.80;99.90
8892;DHT22;4482;54.332;10.118;2022-11-15T16:31:46;9.70;99.90
8892;DHT22;4482;54.332;10.118;2022-11-15T16:34:13;9.70;99.90